createdAt,value
2022-10-20T00:04:37.930Z,6.96
2022-10-20T00:09:41.234Z,6.77
2022-10-20T00:14:43.945Z,6.65
2022-10-20T00:19:50.209Z,6.53
2022-10-20T00:24:53.044Z,6.38
2022-10-20T00:29:55.903Z,6.30
2022-10-20T00:34:58.712Z,6.29
2022-10-20T00:40:01.621Z,6.31
2022-10-20T00:45:12.647Z,6.31
2022-10-20T00:50:21.841Z,6.31
2022-10-20T00:55:32.514Z,6.26
2022-10-20T01:00:37.446Z,6.14
2022-10-20T01:05:40.139Z,5.99
2022-10-20T01:11:25.941Z,5.86
2022-10-20T01:16:47.245Z,5.82
2022-10-20T01:21:58.951Z,5.82
2022-10-20T01:27:26.607Z,5.82
2022-10-20T01:32:38.947Z,5.75
2022-10-20T01:37:57.032Z,5.68
2022-10-20T01:43:03.964Z,5.60
2022-10-20T01:48:07.992Z,5.49
2022-10-20T01:53:10.922Z,5.43
2022-10-20T01:58:39.892Z,5.39
2022-10-20T02:03:54.865Z,5.31
2022-10-20T02:09:04.607Z,5.27
2022-10-20T02:14:10.212Z,5.16
2022-10-20T02:19:14.084Z,5.14
2022-10-20T02:24:17.670Z,5.15
2022-10-20T02:29:25.284Z,5.18
2022-10-20T02:34:28.179Z,5.20
2022-10-20T02:39:30.989Z,5.21
2022-10-20T02:44:33.916Z,5.23
2022-10-20T02:49:36.657Z,5.21
2022-10-20T02:54:40.230Z,5.20
2022-10-20T02:59:43.142Z,5.19
2022-10-20T03:04:45.929Z,5.13
2022-10-20T03:09:49.029Z,5.04
2022-10-20T03:14:51.790Z,4.94
2022-10-20T03:19:54.556Z,4.89
2022-10-20T03:24:57.275Z,4.80
2022-10-20T03:30:00.000Z,4.75
2022-10-20T03:35:02.553Z,4.65
2022-10-20T03:40:05.821Z,4.51
2022-10-20T03:45:09.219Z,4.41
2022-10-20T03:50:12.051Z,4.29
2022-10-20T03:55:16.316Z,4.19
2022-10-20T04:00:19.155Z,4.08
2022-10-20T04:05:22.097Z,3.94
2022-10-20T04:10:25.010Z,3.91
2022-10-20T04:15:29.891Z,3.82
2022-10-20T04:20:32.610Z,3.71
2022-10-20T04:25:35.429Z,3.72
2022-10-20T04:30:42.225Z,3.66
2022-10-20T04:35:45.081Z,3.56
2022-10-20T04:40:54.876Z,3.58
2022-10-20T04:46:05.473Z,3.54
2022-10-20T04:51:14.604Z,3.51
2022-10-20T04:56:20.258Z,3.52
2022-10-20T05:01:25.558Z,3.58
2022-10-20T05:06:31.075Z,3.56
2022-10-20T05:11:36.850Z,3.53
2022-10-20T05:16:39.680Z,3.49
2022-10-20T05:26:50.459Z,3.62
2022-10-20T05:31:53.365Z,3.70
2022-10-20T05:36:56.265Z,3.78
2022-10-20T05:41:58.966Z,3.85
2022-10-20T05:47:01.846Z,3.95
2022-10-20T05:52:04.557Z,4.10
2022-10-20T05:57:07.412Z,4.24
2022-10-20T06:02:11.759Z,4.40
2022-10-20T06:07:14.623Z,4.54
2022-10-20T06:12:17.406Z,4.70
2022-10-20T06:17:20.923Z,4.81
2022-10-20T06:22:23.747Z,4.95
2022-10-20T06:27:26.532Z,5.01
2022-10-20T06:32:29.320Z,5.16
2022-10-20T06:37:33.135Z,5.32
2022-10-20T06:42:36.066Z,5.55
2022-10-20T06:47:39.358Z,5.76
2022-10-20T06:52:42.491Z,5.99
2022-10-20T06:57:45.270Z,6.26
2022-10-20T07:02:48.219Z,6.52
2022-10-20T07:07:54.197Z,6.82
2022-10-20T07:12:57.044Z,7.20
2022-10-20T07:17:59.703Z,8.56
2022-10-20T07:23:02.488Z,9.99
2022-10-20T07:28:05.319Z,11.23
2022-10-20T07:33:09.524Z,12.13
2022-10-20T07:38:12.098Z,12.41
2022-10-20T07:43:14.911Z,12.19
2022-10-20T07:48:18.111Z,11.65
2022-10-20T07:53:21.002Z,11.45
2022-10-20T07:58:23.719Z,11.28
2022-10-20T08:03:26.489Z,11.16
2022-10-20T08:08:29.126Z,11.18
2022-10-20T08:13:32.232Z,11.12
2022-10-20T08:18:38.310Z,11.19
2022-10-20T08:23:43.501Z,11.49
2022-10-20T08:28:47.364Z,12.22
2022-10-20T08:33:52.839Z,12.75
2022-10-20T08:39:02.101Z,12.87
2022-10-20T08:44:08.358Z,13.16
2022-10-20T08:49:25.909Z,13.47
2022-10-20T08:54:28.685Z,13.51
2022-10-20T08:59:39.832Z,13.58
2022-10-20T09:04:57.821Z,13.61
2022-10-20T09:10:34.717Z,13.69
2022-10-20T09:15:37.838Z,13.71
2022-10-20T09:20:44.462Z,13.87
2022-10-20T09:25:47.780Z,13.99
2022-10-20T09:30:51.069Z,14.10
2022-10-20T09:35:54.475Z,14.19
2022-10-20T09:41:14.723Z,14.13
2022-10-20T09:46:21.870Z,14.24
2022-10-20T09:51:28.014Z,14.34
2022-10-20T09:56:33.280Z,14.56
2022-10-20T10:01:52.759Z,14.77
2022-10-20T10:06:55.524Z,15.08
2022-10-20T10:12:13.512Z,15.27
2022-10-20T10:17:38.496Z,15.45
2022-10-20T10:22:43.045Z,15.54
2022-10-20T10:28:00.715Z,15.64
2022-10-20T10:33:25.484Z,15.73
2022-10-20T10:38:29.040Z,15.86
2022-10-20T10:43:56.295Z,16.31
2022-10-20T10:49:36.784Z,16.75
2022-10-20T10:54:56.598Z,17.27
2022-10-20T11:00:01.714Z,17.46
2022-10-20T11:05:27.299Z,17.38
2022-10-20T11:10:59.987Z,17.35
2022-10-20T11:16:53.478Z,17.95
2022-10-20T11:22:17.416Z,18.29
2022-10-20T11:27:25.988Z,18.16
2022-10-20T11:37:43.894Z,18.31
2022-10-20T11:43:14.906Z,18.17
2022-10-20T11:48:40.594Z,17.52
2022-10-20T11:54:01.265Z,16.71
2022-10-20T11:59:34.967Z,16.15
2022-10-20T12:05:08.856Z,15.85
2022-10-20T12:10:43.311Z,15.42
2022-10-20T12:15:55.215Z,14.97
2022-10-20T12:21:05.616Z,14.75
2022-10-20T12:26:30.644Z,14.61
2022-10-20T12:32:20.907Z,14.75
2022-10-20T12:37:23.875Z,14.87
2022-10-20T12:42:29.488Z,14.80
2022-10-20T12:47:35.022Z,14.60
2022-10-20T12:52:40.401Z,14.48
2022-10-20T12:57:45.075Z,14.40
2022-10-20T13:02:58.635Z,14.30
2022-10-20T13:08:16.165Z,14.22
2022-10-20T13:13:18.906Z,14.16
2022-10-20T13:18:22.872Z,14.14
2022-10-20T13:23:50.181Z,14.13
2022-10-20T13:28:55.395Z,14.10
2022-10-20T13:34:16.512Z,14.04
2022-10-20T13:39:35.836Z,14.02
2022-10-20T13:44:49.508Z,14.01
2022-10-20T13:50:13.482Z,13.99
2022-10-20T13:55:25.139Z,13.95
2022-10-20T14:00:31.059Z,13.92
2022-10-20T14:05:38.930Z,13.89
2022-10-20T14:11:04.718Z,13.84
2022-10-20T14:16:18.483Z,13.80
2022-10-20T14:21:21.356Z,13.73
2022-10-20T14:26:25.012Z,13.71
2022-10-20T14:31:28.303Z,13.69
2022-10-20T14:36:31.329Z,13.60
2022-10-20T14:41:35.584Z,13.55
2022-10-20T14:46:40.907Z,13.51
2022-10-20T14:51:54.005Z,13.40
2022-10-20T14:57:02.393Z,13.36
2022-10-20T15:02:09.956Z,13.28
2022-10-20T15:07:33.521Z,13.13
2022-10-20T15:12:36.755Z,12.93
2022-10-20T15:17:42.896Z,12.71
2022-10-20T15:22:45.824Z,12.46
2022-10-20T15:27:48.569Z,12.22
2022-10-20T15:32:52.300Z,11.90
2022-10-20T15:37:56.414Z,11.61
2022-10-20T15:42:59.171Z,11.34
2022-10-20T15:48:02.025Z,11.06
2022-10-20T15:53:05.474Z,10.78
2022-10-20T15:58:08.386Z,10.47
2022-10-20T16:03:17.573Z,10.23
2022-10-20T16:08:20.317Z,10.03
2022-10-20T16:13:23.227Z,9.88
2022-10-20T16:18:26.215Z,9.76
2022-10-20T16:23:29.016Z,9.63
2022-10-20T16:28:31.991Z,9.53
2022-10-20T16:33:35.399Z,9.41
2022-10-20T16:38:40.198Z,9.26
2022-10-20T16:43:45.471Z,9.15
2022-10-20T16:48:48.521Z,9.05
2022-10-20T16:53:51.307Z,8.95
2022-10-20T16:58:54.054Z,8.87
2022-10-20T17:03:56.919Z,8.75
2022-10-20T17:09:00.087Z,8.68
2022-10-20T17:14:05.064Z,8.66
2022-10-20T17:19:08.126Z,8.59
2022-10-20T17:24:14.558Z,8.50
2022-10-20T17:29:20.071Z,8.38
2022-10-20T17:34:24.830Z,8.19
2022-10-20T17:39:28.596Z,8.00
2022-10-20T17:44:31.406Z,7.77
2022-10-20T17:49:34.178Z,7.58
2022-10-20T17:54:37.053Z,7.43
2022-10-20T17:59:52.146Z,7.27
2022-10-20T18:04:57.547Z,7.11
2022-10-20T18:10:00.362Z,6.94
2022-10-20T18:15:04.150Z,6.81
2022-10-20T18:20:07.248Z,6.64
2022-10-20T18:25:10.053Z,6.49
2022-10-20T18:30:12.763Z,6.42
2022-10-20T18:35:15.732Z,6.33
2022-10-20T18:40:18.627Z,6.30
2022-10-20T18:45:23.844Z,6.26
2022-10-20T18:50:28.751Z,6.19
2022-10-20T18:55:31.561Z,6.15
2022-10-20T19:00:34.351Z,6.11
2022-10-20T19:05:38.925Z,6.05
2022-10-20T19:10:44.066Z,5.98
2022-10-20T19:15:47.920Z,5.91
2022-10-20T19:21:02.056Z,5.79
2022-10-20T19:26:18.456Z,5.69
2022-10-20T19:31:43.702Z,5.61
2022-10-20T19:36:47.314Z,5.55
2022-10-20T19:41:50.285Z,5.48
2022-10-20T19:46:53.399Z,5.45
2022-10-20T19:51:56.420Z,5.42
2022-10-20T19:56:59.451Z,5.34
2022-10-20T20:02:02.636Z,5.26
2022-10-20T20:07:05.590Z,5.19
2022-10-20T20:12:08.924Z,5.10
2022-10-20T20:17:11.886Z,5.01
2022-10-20T20:22:14.638Z,4.95
2022-10-20T20:27:17.444Z,4.87
2022-10-20T20:32:20.480Z,4.79
2022-10-20T20:37:23.543Z,4.73
2022-10-20T20:42:26.422Z,4.69
2022-10-20T20:47:33.120Z,4.64
2022-10-20T20:52:35.910Z,4.55
2022-10-20T20:57:39.010Z,4.52
2022-10-20T21:02:44.515Z,4.46
2022-10-20T21:07:47.285Z,4.41
2022-10-20T21:12:49.993Z,4.36
2022-10-20T21:17:52.952Z,4.32
2022-10-20T21:22:55.885Z,4.28
2022-10-20T21:27:58.603Z,4.29
2022-10-20T21:33:01.347Z,4.28
2022-10-20T21:38:04.218Z,4.23
2022-10-20T21:43:10.439Z,4.20
2022-10-20T21:48:13.414Z,4.16
2022-10-20T21:53:17.312Z,4.15
2022-10-20T21:58:20.084Z,4.10
2022-10-20T22:03:23.285Z,4.07
2022-10-20T22:08:26.266Z,4.06
2022-10-20T22:13:28.992Z,4.05
2022-10-20T22:18:31.794Z,3.97
2022-10-20T22:23:34.632Z,3.92
2022-10-20T22:28:38.245Z,3.91
2022-10-20T22:33:41.141Z,3.86
2022-10-20T22:38:44.028Z,3.82
2022-10-20T22:43:46.778Z,3.78
2022-10-20T22:48:50.004Z,3.75
2022-10-20T22:53:52.771Z,3.71
2022-10-20T22:58:55.601Z,3.69
2022-10-20T23:03:58.452Z,3.67
2022-10-20T23:09:01.327Z,3.64
2022-10-20T23:14:04.128Z,3.62
2022-10-20T23:19:07.079Z,3.58
2022-10-20T23:24:09.870Z,3.55
2022-10-20T23:29:12.696Z,3.47
2022-10-20T23:34:15.423Z,3.45
2022-10-20T23:39:18.439Z,3.42
2022-10-20T23:44:21.177Z,3.38
2022-10-20T23:49:23.981Z,3.36
2022-10-20T23:54:26.810Z,3.34
2022-10-20T23:59:29.593Z,3.32
